Kinsman, IL (60437)

8:51 AM CST on December 22, 2014 (GMT -0600)
Verona | Change Station
CLOSE
Current Station
Personal Weather Station
Location: Verona, IL
Elevation: 604 ft
Nearby Weather Stations

Elev 604 ft 41.26 °N, 88.48 °W | Updated 6 minutes ago

Overcast
Overcast
34.0 °F
Feels Like 26 °F
N
11.0
Wind Variable Wind from ESE
Gusts 14.0 mph

Today
High -- | Low -- °F
--% Chance of Precip.
Yesterday
High -- | Low -- °F
Precip. -- in
7:16 AM 4:29 PM
New Moon, 0% visible
Pressure 29.87 in
Visibility 5.0 miles
Clouds Overcast 5000 ft
Windchill 26 °F
Dew Point 31 °F
Humidity 90%
Rainfall 0.00 in
Snow Depth Not available.
UV 0 out of 12
Pollen .10 out of 12
Air Quality Not available.
Flu Activity Not available.
METAR KC09 221435Z AUTO 11008KT 5SM BR OVC050 01/00 A2987 RMK AO2 T00061005

More Conditions Fewer Conditions

Pressure 29.87 in
Visibility 5.0 miles
Clouds Overcast 5000 ft
Windchill 26 °F
Dew Point 31 °F
Humidity 90%
Rainfall 0.00 in
Snow Depth Not available.
UV 0 out of 12
Pollen .10 out of 12
Air Quality Not available.
Flu Activity Not available.
METAR KC09 221435Z AUTO 11008KT 5SM BR OVC050 01/00 A2987 RMK AO2 T00061005

More Conditions Fewer Conditions

10-Day Weather Forecast

Almanac

Astronomy

Dec. 22, 2014 Rise Set
Actual Time
Civil Twilight
Nautical Twilight
Astronomical Twilight
Moon
Length of Visible Light
Length of Day
Tomorrow will be .
, % of the Moon is Illuminated

Today's Extremes

State Highs State Lows

Community

WunderPhotos

Upload Photos

1,779,608 photos uploaded!

WunderBlogs® & News

Nearby

Air Quality

  Air Quality AQ Index Pollutant
Not available.

Snow Depth

Station Depth Elevation

Earthquake Activity

City Distance Mag. Time & Date
Minimum magnitude displayed is 2.5.

Coastal Water Temperatures

Place Temperature

Nearby Weather Stations